sensor_id;sensor_type;location;lat;lon;timestamp;pressure;altitude;pressure_sealevel;temperature;humidity
84028;BME280;74111;45.650;25.612;2024-01-16T00:01:37;93371.86;;;1.91;71.43
84028;BME280;74111;45.650;25.612;2024-01-16T00:04:05;93371.86;;;1.91;72.54
84028;BME280;74111;45.650;25.612;2024-01-16T00:06:33;93369.52;;;1.89;72.62
84028;BME280;74111;45.650;25.612;2024-01-16T00:09:01;93384.38;;;1.86;71.37
84028;BME280;74111;45.650;25.612;2024-01-16T00:11:29;93389.97;;;1.80;71.00
84028;BME280;74111;45.650;25.612;2024-01-16T00:13:57;93398.10;;;1.78;70.82
84028;BME280;74111;45.650;25.612;2024-01-16T00:16:26;93391.79;;;1.63;71.47
84028;BME280;74111;45.650;25.612;2024-01-16T00:18:54;93392.61;;;1.61;71.16
84028;BME280;74111;45.650;25.612;2024-01-16T00:21:22;93390.95;;;1.52;72.51
84028;BME280;74111;45.650;25.612;2024-01-16T00:23:50;93393.92;;;1.53;71.71
84028;BME280;74111;45.650;25.612;2024-01-16T00:26:22;93393.89;;;1.55;71.35
84028;BME280;74111;45.650;25.612;2024-01-16T00:28:51;93397.52;;;1.59;71.18
84028;BME280;74111;45.650;25.612;2024-01-16T00:31:19;93402.97;;;1.64;71.54
84028;BME280;74111;45.650;25.612;2024-01-16T00:33:47;93419.56;;;1.62;71.54
84028;BME280;74111;45.650;25.612;2024-01-16T00:36:16;93420.39;;;1.50;72.44
84028;BME280;74111;45.650;25.612;2024-01-16T00:38:44;93418.88;;;1.51;72.23
84028;BME280;74111;45.650;25.612;2024-01-16T00:41:13;93430.40;;;1.52;72.32
84028;BME280;74111;45.650;25.612;2024-01-16T00:43:44;93441.98;;;1.53;72.80
84028;BME280;74111;45.650;25.612;2024-01-16T00:46:13;93448.45;;;1.47;71.80
84028;BME280;74111;45.650;25.612;2024-01-16T00:48:41;93459.30;;;1.47;71.40
84028;BME280;74111;45.650;25.612;2024-01-16T00:51:09;93473.23;;;1.50;71.33
84028;BME280;74111;45.650;25.612;2024-01-16T00:53:41;93471.43;;;1.56;71.58
84028;BME280;74111;45.650;25.612;2024-01-16T00:56:11;93472.62;;;1.57;71.46
84028;BME280;74111;45.650;25.612;2024-01-16T00:58:40;93464.30;;;1.56;71.19
84028;BME280;74111;45.650;25.612;2024-01-16T01:01:09;93457.91;;;1.55;70.41
84028;BME280;74111;45.650;25.612;2024-01-16T01:03:37;93461.11;;;1.54;70.30
84028;BME280;74111;45.650;25.612;2024-01-16T01:06:05;93461.23;;;1.53;69.96
84028;BME280;74111;45.650;25.612;2024-01-16T01:08:34;93468.36;;;1.50;69.32
84028;BME280;74111;45.650;25.612;2024-01-16T01:11:03;93458.44;;;1.46;69.39
84028;BME280;74111;45.650;25.612;2024-01-16T01:13:31;93456.08;;;1.38;69.87
84028;BME280;74111;45.650;25.612;2024-01-16T01:15:59;93456.14;;;1.37;70.15
84028;BME280;74111;45.650;25.612;2024-01-16T01:18:28;93455.45;;;1.36;69.93
84028;BME280;74111;45.650;25.612;2024-01-16T01:20:57;93463.21;;;1.37;70.14
84028;BME280;74111;45.650;25.612;2024-01-16T01:23:25;93470.23;;;1.38;70.24
84028;BME280;74111;45.650;25.612;2024-01-16T01:25:53;93475.73;;;1.39;69.95
84028;BME280;74111;45.650;25.612;2024-01-16T01:28:21;93473.94;;;1.40;69.93
84028;BME280;74111;45.650;25.612;2024-01-16T01:30:49;93461.30;;;1.42;69.77
84028;BME280;74111;45.650;25.612;2024-01-16T01:33:18;93446.89;;;1.41;69.74
84028;BME280;74111;45.650;25.612;2024-01-16T01:35:46;93456.04;;;1.40;69.82
84028;BME280;74111;45.650;25.612;2024-01-16T01:38:15;93449.14;;;1.39;69.90
84028;BME280;74111;45.650;25.612;2024-01-16T01:40:43;93436.77;;;1.39;70.08
84028;BME280;74111;45.650;25.612;2024-01-16T01:43:19;93441.27;;;1.39;69.88
84028;BME280;74111;45.650;25.612;2024-01-16T01:48:21;93444.56;;;1.40;70.16
84028;BME280;74111;45.650;25.612;2024-01-16T01:50:50;93443.91;;;1.37;70.56
84028;BME280;74111;45.650;25.612;2024-01-16T01:53:18;93444.08;;;1.36;70.26
84028;BME280;74111;45.650;25.612;2024-01-16T01:55:47;93453.01;;;1.40;70.31
84028;BME280;74111;45.650;25.612;2024-01-16T01:58:16;93454.41;;;1.45;70.20
84028;BME280;74111;45.650;25.612;2024-01-16T02:00:44;93457.80;;;1.47;70.08
84028;BME280;74111;45.650;25.612;2024-01-16T02:03:12;93464.55;;;1.47;70.36
84028;BME280;74111;45.650;25.612;2024-01-16T02:05:42;93461.48;;;1.46;70.75
84028;BME280;74111;45.650;25.612;2024-01-16T02:08:10;93469.77;;;1.46;70.42
84028;BME280;74111;45.650;25.612;2024-01-16T02:10:42;93472.73;;;1.47;70.45
84028;BME280;74111;45.650;25.612;2024-01-16T02:13:12;93483.56;;;1.51;69.98
84028;BME280;74111;45.650;25.612;2024-01-16T02:15:40;93477.95;;;1.47;70.06
84028;BME280;74111;45.650;25.612;2024-01-16T02:18:09;93475.51;;;1.45;69.73
84028;BME280;74111;45.650;25.612;2024-01-16T02:20:37;93475.38;;;1.43;70.19
84028;BME280;74111;45.650;25.612;2024-01-16T02:23:07;93477.34;;;1.34;70.66
84028;BME280;74111;45.650;25.612;2024-01-16T02:25:36;93476.60;;;1.36;70.28
84028;BME280;74111;45.650;25.612;2024-01-16T02:28:05;93482.00;;;1.41;69.99
84028;BME280;74111;45.650;25.612;2024-01-16T02:30:34;93490.34;;;1.46;70.22
84028;BME280;74111;45.650;25.612;2024-01-16T02:33:03;93494.80;;;1.49;70.25
84028;BME280;74111;45.650;25.612;2024-01-16T02:35:32;93501.97;;;1.52;69.95
84028;BME280;74111;45.650;25.612;2024-01-16T02:38:00;93501.45;;;1.52;69.88
84028;BME280;74111;45.650;25.612;2024-01-16T02:40:28;93491.41;;;1.48;69.87
84028;BME280;74111;45.650;25.612;2024-01-16T02:42:56;93491.98;;;1.47;69.55
84028;BME280;74111;45.650;25.612;2024-01-16T02:45:24;93494.49;;;1.45;69.86
84028;BME280;74111;45.650;25.612;2024-01-16T02:47:53;93488.09;;;1.41;69.93
84028;BME280;74111;45.650;25.612;2024-01-16T02:50:21;93486.19;;;1.37;70.46
84028;BME280;74111;45.650;25.612;2024-01-16T02:52:50;93481.16;;;1.32;70.08
84028;BME280;74111;45.650;25.612;2024-01-16T02:55:18;93482.91;;;1.21;69.84
84028;BME280;74111;45.650;25.612;2024-01-16T02:57:47;93488.13;;;1.27;69.73
84028;BME280;74111;45.650;25.612;2024-01-16T03:00:15;93492.72;;;1.30;69.88
84028;BME280;74111;45.650;25.612;2024-01-16T03:02:44;93492.53;;;1.27;70.24
84028;BME280;74111;45.650;25.612;2024-01-16T03:05:12;93492.10;;;1.28;70.09
84028;BME280;74111;45.650;25.612;2024-01-16T03:07:41;93499.08;;;1.30;69.67
84028;BME280;74111;45.650;25.612;2024-01-16T03:10:09;93495.87;;;1.29;69.23
84028;BME280;74111;45.650;25.612;2024-01-16T03:12:37;93501.90;;;1.34;69.04
84028;BME280;74111;45.650;25.612;2024-01-16T03:15:06;93509.89;;;1.38;68.94
84028;BME280;74111;45.650;25.612;2024-01-16T03:17:34;93514.80;;;1.40;68.62
84028;BME280;74111;45.650;25.612;2024-01-16T03:20:02;93517.27;;;1.39;68.47
84028;BME280;74111;45.650;25.612;2024-01-16T03:22:31;93515.14;;;1.37;68.38
84028;BME280;74111;45.650;25.612;2024-01-16T03:24:59;93519.42;;;1.34;68.25
84028;BME280;74111;45.650;25.612;2024-01-16T03:27:30;93523.00;;;1.28;68.11
84028;BME280;74111;45.650;25.612;2024-01-16T03:29:58;93515.38;;;1.26;68.41
84028;BME280;74111;45.650;25.612;2024-01-16T03:32:27;93520.73;;;1.28;68.57
84028;BME280;74111;45.650;25.612;2024-01-16T03:34:55;93526.76;;;1.29;68.80
84028;BME280;74111;45.650;25.612;2024-01-16T03:37:23;93527.63;;;1.27;68.78
84028;BME280;74111;45.650;25.612;2024-01-16T03:39:52;93535.27;;;1.24;68.66
84028;BME280;74111;45.650;25.612;2024-01-16T03:42:20;93551.52;;;1.23;68.55
84028;BME280;74111;45.650;25.612;2024-01-16T03:44:49;93551.58;;;1.20;68.67
84028;BME280;74111;45.650;25.612;2024-01-16T03:47:18;93555.61;;;1.13;68.99
84028;BME280;74111;45.650;25.612;2024-01-16T03:49:46;93555.41;;;1.07;68.82
84028;BME280;74111;45.650;25.612;2024-01-16T03:52:14;93563.91;;;1.00;69.47
84028;BME280;74111;45.650;25.612;2024-01-16T03:54:43;93568.73;;;0.94;68.99
84028;BME280;74111;45.650;25.612;2024-01-16T03:57:11;93577.67;;;0.90;69.47
84028;BME280;74111;45.650;25.612;2024-01-16T03:59:40;93576.39;;;0.94;69.38
84028;BME280;74111;45.650;25.612;2024-01-16T04:02:08;93583.55;;;0.89;69.82
84028;BME280;74111;45.650;25.612;2024-01-16T04:04:36;93582.04;;;0.89;69.41
84028;BME280;74111;45.650;25.612;2024-01-16T04:07:04;93592.16;;;0.89;69.00
84028;BME280;74111;45.650;25.612;2024-01-16T04:09:33;93601.80;;;0.86;68.90
84028;BME280;74111;45.650;25.612;2024-01-16T04:12:01;93596.79;;;0.85;68.93
84028;BME280;74111;45.650;25.612;2024-01-16T04:14:29;93604.20;;;0.83;69.07
84028;BME280;74111;45.650;25.612;2024-01-16T04:16:58;93607.29;;;0.74;69.32
84028;BME280;74111;45.650;25.612;2024-01-16T04:19:26;93606.89;;;0.65;69.74
84028;BME280;74111;45.650;25.612;2024-01-16T04:21:54;93604.11;;;0.59;69.68
84028;BME280;74111;45.650;25.612;2024-01-16T04:24:22;93602.42;;;0.60;69.56
84028;BME280;74111;45.650;25.612;2024-01-16T04:26:51;93597.93;;;0.58;69.85
84028;BME280;74111;45.650;25.612;2024-01-16T04:29:19;93597.66;;;0.59;69.62
84028;BME280;74111;45.650;25.612;2024-01-16T04:31:47;93604.45;;;0.55;69.69
84028;BME280;74111;45.650;25.612;2024-01-16T04:34:15;93602.11;;;0.51;69.51
84028;BME280;74111;45.650;25.612;2024-01-16T04:36:44;93606.97;;;0.44;69.48
84028;BME280;74111;45.650;25.612;2024-01-16T04:39:12;93605.96;;;0.37;69.52
84028;BME280;74111;45.650;25.612;2024-01-16T04:41:40;93614.20;;;0.15;70.77
84028;BME280;74111;45.650;25.612;2024-01-16T04:44:08;93619.84;;;0.06;71.03
84028;BME280;74111;45.650;25.612;2024-01-16T04:46:36;93624.61;;;0.05;70.97
84028;BME280;74111;45.650;25.612;2024-01-16T04:49:06;93639.37;;;0.03;71.01
84028;BME280;74111;45.650;25.612;2024-01-16T04:51:34;93647.63;;;-0.05;71.04
84028;BME280;74111;45.650;25.612;2024-01-16T04:54:02;93643.18;;;-0.09;71.05
84028;BME280;74111;45.650;25.612;2024-01-16T04:56:30;93642.82;;;-0.06;70.59
84028;BME280;74111;45.650;25.612;2024-01-16T04:58:59;93635.67;;;-0.01;70.05
84028;BME280;74111;45.650;25.612;2024-01-16T05:01:27;93638.52;;;0.04;70.24
84028;BME280;74111;45.650;25.612;2024-01-16T05:03:55;93648.73;;;0.08;69.70
84028;BME280;74111;45.650;25.612;2024-01-16T05:06:24;93648.55;;;0.12;69.76
84028;BME280;74111;45.650;25.612;2024-01-16T05:08:52;93653.61;;;0.18;69.58
84028;BME280;74111;45.650;25.612;2024-01-16T05:11:20;93653.89;;;0.24;69.26
84028;BME280;74111;45.650;25.612;2024-01-16T05:13:48;93666.84;;;0.31;69.01
84028;BME280;74111;45.650;25.612;2024-01-16T05:16:17;93667.51;;;0.35;68.74
84028;BME280;74111;45.650;25.612;2024-01-16T05:18:45;93658.79;;;0.32;68.15
84028;BME280;74111;45.650;25.612;2024-01-16T05:21:13;93664.40;;;0.29;67.58
84028;BME280;74111;45.650;25.612;2024-01-16T05:23:41;93673.41;;;0.25;66.82
84028;BME280;74111;45.650;25.612;2024-01-16T05:26:11;93679.98;;;0.21;66.69
84028;BME280;74111;45.650;25.612;2024-01-16T05:28:39;93695.91;;;0.12;66.71
84028;BME280;74111;45.650;25.612;2024-01-16T05:31:08;93692.94;;;0.11;66.74
84028;BME280;74111;45.650;25.612;2024-01-16T05:33:36;93699.41;;;0.17;66.83
84028;BME280;74111;45.650;25.612;2024-01-16T05:36:05;93708.16;;;0.16;65.78
84028;BME280;74111;45.650;25.612;2024-01-16T05:38:33;93710.09;;;0.17;65.54
84028;BME280;74111;45.650;25.612;2024-01-16T05:41:03;93711.11;;;0.09;65.06
84028;BME280;74111;45.650;25.612;2024-01-16T05:43:31;93708.92;;;0.06;64.83
84028;BME280;74111;45.650;25.612;2024-01-16T05:45:59;93719.33;;;-0.07;64.08
84028;BME280;74111;45.650;25.612;2024-01-16T05:48:28;93734.88;;;-0.13;63.77
84028;BME280;74111;45.650;25.612;2024-01-16T05:50:57;93738.86;;;-0.15;64.14
84028;BME280;74111;45.650;25.612;2024-01-16T05:53:25;93737.14;;;-0.15;64.09
84028;BME280;74111;45.650;25.612;2024-01-16T05:55:53;93758.70;;;-0.27;67.19
84028;BME280;74111;45.650;25.612;2024-01-16T05:58:22;93763.52;;;-0.21;69.63
84028;BME280;74111;45.650;25.612;2024-01-16T06:00:51;93781.57;;;-0.16;67.24
84028;BME280;74111;45.650;25.612;2024-01-16T06:03:19;93792.90;;;-0.14;65.74
84028;BME280;74111;45.650;25.612;2024-01-16T06:05:47;93801.86;;;-0.13;64.74
84028;BME280;74111;45.650;25.612;2024-01-16T06:08:16;93805.74;;;-0.19;63.05
84028;BME280;74111;45.650;25.612;2024-01-16T06:10:45;93807.58;;;-0.23;63.65
84028;BME280;74111;45.650;25.612;2024-01-16T06:13:13;93819.04;;;-0.27;63.50
84028;BME280;74111;45.650;25.612;2024-01-16T06:15:42;93826.98;;;-0.33;62.77
84028;BME280;74111;45.650;25.612;2024-01-16T06:18:10;93838.70;;;-0.37;62.20
84028;BME280;74111;45.650;25.612;2024-01-16T06:20:38;93845.50;;;-0.36;62.63
84028;BME280;74111;45.650;25.612;2024-01-16T06:23:07;93850.84;;;-0.34;62.69
84028;BME280;74111;45.650;25.612;2024-01-16T06:25:35;93856.59;;;-0.33;62.29
84028;BME280;74111;45.650;25.612;2024-01-16T06:28:03;93856.60;;;-0.27;61.84
84028;BME280;74111;45.650;25.612;2024-01-16T06:30:33;93863.88;;;-0.11;61.77
84028;BME280;74111;45.650;25.612;2024-01-16T06:33:02;93866.09;;;-0.13;60.68
84028;BME280;74111;45.650;25.612;2024-01-16T06:35:31;93874.55;;;-0.17;60.63
84028;BME280;74111;45.650;25.612;2024-01-16T06:37:59;93878.62;;;-0.19;60.73
84028;BME280;74111;45.650;25.612;2024-01-16T06:40:27;93873.02;;;-0.28;60.59
84028;BME280;74111;45.650;25.612;2024-01-16T06:42:55;93877.42;;;-0.26;60.65
84028;BME280;74111;45.650;25.612;2024-01-16T06:45:23;93890.61;;;-0.30;60.59
84028;BME280;74111;45.650;25.612;2024-01-16T06:47:55;93892.01;;;-0.34;60.86
84028;BME280;74111;45.650;25.612;2024-01-16T06:50:23;93897.71;;;-0.32;61.05
84028;BME280;74111;45.650;25.612;2024-01-16T06:52:52;93903.33;;;-0.33;61.02
84028;BME280;74111;45.650;25.612;2024-01-16T06:55:20;93907.97;;;-0.36;60.93
84028;BME280;74111;45.650;25.612;2024-01-16T06:57:48;93911.52;;;-0.37;61.63
84028;BME280;74111;45.650;25.612;2024-01-16T07:00:16;93932.06;;;-0.43;61.66
84028;BME280;74111;45.650;25.612;2024-01-16T07:02:44;93927.90;;;-0.53;63.22
84028;BME280;74111;45.650;25.612;2024-01-16T07:05:13;93931.44;;;-0.59;65.36
84028;BME280;74111;45.650;25.612;2024-01-16T07:07:41;93937.73;;;-0.52;64.55
84028;BME280;74111;45.650;25.612;2024-01-16T07:10:09;93927.40;;;-0.47;64.39
84028;BME280;74111;45.650;25.612;2024-01-16T07:12:46;93933.84;;;-0.45;64.14
84028;BME280;74111;45.650;25.612;2024-01-16T07:15:15;93938.49;;;-0.43;64.12
84028;BME280;74111;45.650;25.612;2024-01-16T07:17:43;93939.38;;;-0.48;64.30
84028;BME280;74111;45.650;25.612;2024-01-16T07:20:12;93952.83;;;-0.44;63.08
84028;BME280;74111;45.650;25.612;2024-01-16T07:22:40;93959.42;;;-0.44;62.00
84028;BME280;74111;45.650;25.612;2024-01-16T07:25:09;93959.05;;;-0.43;61.29
84028;BME280;74111;45.650;25.612;2024-01-16T07:27:38;93967.74;;;-0.54;63.30
84028;BME280;74111;45.650;25.612;2024-01-16T07:30:07;93968.29;;;-0.66;66.41
84028;BME280;74111;45.650;25.612;2024-01-16T07:32:35;93976.46;;;-0.61;65.03
84028;BME280;74111;45.650;25.612;2024-01-16T07:35:04;93987.28;;;-0.50;63.29
84028;BME280;74111;45.650;25.612;2024-01-16T07:37:32;93992.79;;;-0.45;63.23
84028;BME280;74111;45.650;25.612;2024-01-16T07:40:00;93993.27;;;-0.41;61.90
84028;BME280;74111;45.650;25.612;2024-01-16T07:42:28;93996.36;;;-0.40;61.84
84028;BME280;74111;45.650;25.612;2024-01-16T07:45:03;93997.83;;;-0.40;61.56
84028;BME280;74111;45.650;25.612;2024-01-16T07:47:32;94005.38;;;-0.35;61.13
84028;BME280;74111;45.650;25.612;2024-01-16T07:50:01;94004.54;;;-0.36;60.00
84028;BME280;74111;45.650;25.612;2024-01-16T07:52:34;94008.57;;;-0.33;60.56
84028;BME280;74111;45.650;25.612;2024-01-16T07:55:02;94008.77;;;-0.36;60.20
84028;BME280;74111;45.650;25.612;2024-01-16T07:57:31;94014.77;;;-0.41;60.70
84028;BME280;74111;45.650;25.612;2024-01-16T08:00:00;94018.83;;;-0.48;60.13
84028;BME280;74111;45.650;25.612;2024-01-16T08:02:32;94020.33;;;-0.51;59.87
84028;BME280;74111;45.650;25.612;2024-01-16T08:05:02;94023.14;;;-0.53;59.83
84028;BME280;74111;45.650;25.612;2024-01-16T08:07:31;94029.25;;;-0.56;59.97
84028;BME280;74111;45.650;25.612;2024-01-16T08:09:59;94033.33;;;-0.58;59.76
84028;BME280;74111;45.650;25.612;2024-01-16T08:12:27;94049.01;;;-0.57;59.65
84028;BME280;74111;45.650;25.612;2024-01-16T08:14:56;94057.68;;;-0.58;59.82
84028;BME280;74111;45.650;25.612;2024-01-16T08:17:24;94053.99;;;-0.54;60.19
84028;BME280;74111;45.650;25.612;2024-01-16T08:19:52;94054.00;;;-0.53;60.11
84028;BME280;74111;45.650;25.612;2024-01-16T08:22:21;94063.52;;;-0.52;60.18
84028;BME280;74111;45.650;25.612;2024-01-16T08:24:49;94064.86;;;-0.57;59.48
84028;BME280;74111;45.650;25.612;2024-01-16T08:27:18;94077.23;;;-0.50;59.61
84028;BME280;74111;45.650;25.612;2024-01-16T08:29:47;94081.30;;;-0.53;59.58
84028;BME280;74111;45.650;25.612;2024-01-16T08:32:21;94090.83;;;-0.52;59.57
84028;BME280;74111;45.650;25.612;2024-01-16T08:34:49;94100.69;;;-0.50;59.07
84028;BME280;74111;45.650;25.612;2024-01-16T08:37:17;94102.91;;;-0.53;58.82
84028;BME280;74111;45.650;25.612;2024-01-16T08:39:46;94099.44;;;-0.54;58.81
84028;BME280;74111;45.650;25.612;2024-01-16T08:42:14;94105.63;;;-0.52;58.82
84028;BME280;74111;45.650;25.612;2024-01-16T08:44:42;94107.12;;;-0.50;58.56
84028;BME280;74111;45.650;25.612;2024-01-16T08:47:10;94109.48;;;-0.47;58.47
84028;BME280;74111;45.650;25.612;2024-01-16T08:49:38;94103.08;;;-0.50;58.16
84028;BME280;74111;45.650;25.612;2024-01-16T08:52:07;94104.64;;;-0.42;58.83
84028;BME280;74111;45.650;25.612;2024-01-16T08:54:36;94112.20;;;-0.36;58.86
84028;BME280;74111;45.650;25.612;2024-01-16T08:57:04;94113.02;;;-0.31;58.33
84028;BME280;74111;45.650;25.612;2024-01-16T08:59:32;94109.55;;;-0.21;58.37
84028;BME280;74111;45.650;25.612;2024-01-16T09:02:00;94108.77;;;-0.17;57.77
84028;BME280;74111;45.650;25.612;2024-01-16T09:04:29;94115.48;;;-0.05;57.50
84028;BME280;74111;45.650;25.612;2024-01-16T09:06:57;94113.30;;;-0.02;56.96
84028;BME280;74111;45.650;25.612;2024-01-16T09:09:26;94113.84;;;0.00;56.74
84028;BME280;74111;45.650;25.612;2024-01-16T09:11:54;94105.50;;;0.17;56.67
84028;BME280;74111;45.650;25.612;2024-01-16T09:14:22;94120.38;;;0.55;56.55
84028;BME280;74111;45.650;25.612;2024-01-16T09:16:50;94120.96;;;0.99;55.80
84028;BME280;74111;45.650;25.612;2024-01-16T09:19:18;94130.39;;;1.41;54.38
84028;BME280;74111;45.650;25.612;2024-01-16T09:21:47;94141.59;;;1.60;52.97
84028;BME280;74111;45.650;25.612;2024-01-16T09:24:15;94130.27;;;1.80;52.40
84028;BME280;74111;45.650;25.612;2024-01-16T09:26:43;94133.40;;;2.05;51.45
84028;BME280;74111;45.650;25.612;2024-01-16T09:29:12;94153.48;;;2.09;50.65
84028;BME280;74111;45.650;25.612;2024-01-16T09:31:40;94151.38;;;2.14;50.74
84028;BME280;74111;45.650;25.612;2024-01-16T09:34:09;94147.89;;;2.01;50.95
84028;BME280;74111;45.650;25.612;2024-01-16T09:36:38;94164.23;;;1.83;50.76
84028;BME280;74111;45.650;25.612;2024-01-16T09:39:07;94163.52;;;1.69;51.47
84028;BME280;74111;45.650;25.612;2024-01-16T09:41:46;94166.54;;;1.37;51.72
84028;BME280;74111;45.650;25.612;2024-01-16T09:44:15;94164.02;;;1.11;52.47
84028;BME280;74111;45.650;25.612;2024-01-16T09:46:44;94163.16;;;0.94;53.03
84028;BME280;74111;45.650;25.612;2024-01-16T09:49:17;94167.67;;;0.89;53.35
84028;BME280;74111;45.650;25.612;2024-01-16T09:51:46;94162.50;;;0.71;54.09
84028;BME280;74111;45.650;25.612;2024-01-16T09:54:14;94169.40;;;0.46;54.35
84028;BME280;74111;45.650;25.612;2024-01-16T09:56:43;94173.33;;;0.16;55.19
84028;BME280;74111;45.650;25.612;2024-01-16T09:59:17;94177.23;;;0.22;55.35
84028;BME280;74111;45.650;25.612;2024-01-16T10:01:51;94173.55;;;0.21;55.88
84028;BME280;74111;45.650;25.612;2024-01-16T10:04:22;94182.52;;;0.12;55.51
84028;BME280;74111;45.650;25.612;2024-01-16T10:06:51;94178.43;;;0.12;55.64
84028;BME280;74111;45.650;25.612;2024-01-16T10:09:21;94181.74;;;0.12;55.06
84028;BME280;74111;45.650;25.612;2024-01-16T10:11:51;94183.34;;;0.08;54.57
84028;BME280;74111;45.650;25.612;2024-01-16T10:14:19;94183.33;;;0.14;55.13
84028;BME280;74111;45.650;25.612;2024-01-16T10:17:01;94182.77;;;0.09;54.42
84028;BME280;74111;45.650;25.612;2024-01-16T10:19:51;94184.36;;;0.01;54.36
84028;BME280;74111;45.650;25.612;2024-01-16T10:22:23;94191.77;;;0.07;54.64
84028;BME280;74111;45.650;25.612;2024-01-16T10:27:36;94187.55;;;0.04;54.54
84028;BME280;74111;45.650;25.612;2024-01-16T10:30:05;94190.02;;;0.12;54.74
84028;BME280;74111;45.650;25.612;2024-01-16T10:32:36;94194.78;;;0.13;53.80
84028;BME280;74111;45.650;25.612;2024-01-16T10:35:13;94196.83;;;0.15;54.26
84028;BME280;74111;45.650;25.612;2024-01-16T10:37:49;94204.80;;;0.08;53.64
84028;BME280;74111;45.650;25.612;2024-01-16T10:40:22;94206.02;;;0.10;53.95
84028;BME280;74111;45.650;25.612;2024-01-16T10:43:01;94207.86;;;0.13;54.24
84028;BME280;74111;45.650;25.612;2024-01-16T10:45:32;94212.11;;;0.13;54.05
84028;BME280;74111;45.650;25.612;2024-01-16T10:48:01;94221.25;;;0.08;53.42
84028;BME280;74111;45.650;25.612;2024-01-16T10:50:32;94213.06;;;0.05;53.39
84028;BME280;74111;45.650;25.612;2024-01-16T10:53:05;94220.12;;;0.04;53.64
84028;BME280;74111;45.650;25.612;2024-01-16T10:56:00;94225.65;;;0.09;53.85
84028;BME280;74111;45.650;25.612;2024-01-16T10:58:29;94226.59;;;0.09;53.48
84028;BME280;74111;45.650;25.612;2024-01-16T11:01:02;94225.42;;;0.07;53.69
84028;BME280;74111;45.650;25.612;2024-01-16T11:03:49;94224.02;;;0.07;54.59
84028;BME280;74111;45.650;25.612;2024-01-16T11:06:19;94223.59;;;0.16;54.01
84028;BME280;74111;45.650;25.612;2024-01-16T11:08:48;94224.54;;;0.17;54.20
84028;BME280;74111;45.650;25.612;2024-01-16T11:11:17;94224.70;;;0.10;53.73
84028;BME280;74111;45.650;25.612;2024-01-16T11:13:46;94230.06;;;0.13;54.18
84028;BME280;74111;45.650;25.612;2024-01-16T11:16:15;94228.81;;;0.22;53.94
84028;BME280;74111;45.650;25.612;2024-01-16T11:18:44;94233.85;;;0.27;53.26
84028;BME280;74111;45.650;25.612;2024-01-16T11:21:14;94238.92;;;0.35;53.21
84028;BME280;74111;45.650;25.612;2024-01-16T11:23:47;94239.33;;;0.43;53.67
84028;BME280;74111;45.650;25.612;2024-01-16T11:26:26;94244.48;;;0.49;53.47
84028;BME280;74111;45.650;25.612;2024-01-16T11:29:00;94250.27;;;0.56;52.85
84028;BME280;74111;45.650;25.612;2024-01-16T11:31:33;94255.83;;;0.44;52.14
84028;BME280;74111;45.650;25.612;2024-01-16T11:34:02;94271.67;;;0.47;52.31
84028;BME280;74111;45.650;25.612;2024-01-16T11:36:52;94268.48;;;0.49;52.00
84028;BME280;74111;45.650;25.612;2024-01-16T11:39:25;94271.08;;;0.46;51.78
84028;BME280;74111;45.650;25.612;2024-01-16T11:41:55;94274.46;;;0.50;51.17
84028;BME280;74111;45.650;25.612;2024-01-16T11:47:15;94278.96;;;0.40;50.83
84028;BME280;74111;45.650;25.612;2024-01-16T11:49:47;94278.57;;;0.45;50.68
84028;BME280;74111;45.650;25.612;2024-01-16T11:52:39;94271.58;;;0.49;50.37
84028;BME280;74111;45.650;25.612;2024-01-16T12:00:35;94284.16;;;1.44;51.16
84028;BME280;74111;45.650;25.612;2024-01-16T12:03:05;94284.48;;;2.88;49.84
84028;BME280;74111;45.650;25.612;2024-01-16T12:05:38;94301.84;;;3.84;51.56
84028;BME280;74111;45.650;25.612;2024-01-16T12:08:06;94299.55;;;4.38;45.03
84028;BME280;74111;45.650;25.612;2024-01-16T12:10:45;94301.02;;;4.65;43.76
84028;BME280;74111;45.650;25.612;2024-01-16T12:13:15;94313.41;;;4.59;40.91
84028;BME280;74111;45.650;25.612;2024-01-16T12:15:44;94312.27;;;4.12;40.09
84028;BME280;74111;45.650;25.612;2024-01-16T12:18:18;94321.42;;;3.55;40.91
84028;BME280;74111;45.650;25.612;2024-01-16T12:21:08;94320.86;;;3.22;42.40
84028;BME280;74111;45.650;25.612;2024-01-16T12:23:38;94329.63;;;3.16;42.06
84028;BME280;74111;45.650;25.612;2024-01-16T12:26:22;94323.81;;;4.34;40.22
84028;BME280;74111;45.650;25.612;2024-01-16T12:28:52;94332.46;;;5.17;38.04
84028;BME280;74111;45.650;25.612;2024-01-16T12:31:27;94336.82;;;4.83;37.95
84028;BME280;74111;45.650;25.612;2024-01-16T12:34:07;94337.95;;;4.15;37.87
84028;BME280;74111;45.650;25.612;2024-01-16T12:36:37;94347.90;;;3.65;38.94
84028;BME280;74111;45.650;25.612;2024-01-16T12:39:06;94346.98;;;3.18;39.99
84028;BME280;74111;45.650;25.612;2024-01-16T12:41:42;94347.70;;;2.90;40.57
84028;BME280;74111;45.650;25.612;2024-01-16T12:44:13;94340.14;;;2.74;41.60
84028;BME280;74111;45.650;25.612;2024-01-16T12:46:54;94342.59;;;2.60;41.29
84028;BME280;74111;45.650;25.612;2024-01-16T12:49:24;94343.02;;;2.62;42.01
84028;BME280;74111;45.650;25.612;2024-01-16T12:52:19;94344.33;;;2.58;41.22
84028;BME280;74111;45.650;25.612;2024-01-16T12:54:59;94353.64;;;2.77;41.65
84028;BME280;74111;45.650;25.612;2024-01-16T12:57:33;94354.74;;;3.08;41.47
84028;BME280;74111;45.650;25.612;2024-01-16T13:00:20;94363.35;;;3.87;40.22
84028;BME280;74111;45.650;25.612;2024-01-16T13:02:54;94362.91;;;3.84;40.31
84028;BME280;74111;45.650;25.612;2024-01-16T13:05:27;94365.84;;;3.47;39.58
84028;BME280;74111;45.650;25.612;2024-01-16T13:08:02;94377.20;;;3.17;39.67
84028;BME280;74111;45.650;25.612;2024-01-16T13:10:31;94371.31;;;2.75;40.34
84028;BME280;74111;45.650;25.612;2024-01-16T13:15:41;94381.36;;;2.29;41.46
84028;BME280;74111;45.650;25.612;2024-01-16T13:18:21;94374.38;;;2.14;42.07
84028;BME280;74111;45.650;25.612;2024-01-16T13:20:51;94388.60;;;2.00;42.00
84028;BME280;74111;45.650;25.612;2024-01-16T13:23:21;94399.71;;;1.76;42.29
84028;BME280;74111;45.650;25.612;2024-01-16T13:25:51;94391.00;;;1.61;42.70
84028;BME280;74111;45.650;25.612;2024-01-16T13:28:20;94393.27;;;1.43;43.44